Time;durP1;ratioP1;P1;durP2;ratioP2;P2;SDS_P1;SDS_P2;PMS_P1;PMS_P2;Temp;Humidity;BMP_temperature;BMP_pressure;BME280_temperature;BME280_humidity;BME280_pressure;Samples;Min_cycle;Max_cycle;Signal;HPM_P1;HPM_P2
2023/09/03 00:01:11;;;;;;;28.67;24.45;;;17.10;99.90;;;;;;5009842;28;20208;-83
2023/09/03 00:03:39;;;;;;;28.05;23.70;;;17.00;99.90;;;;;;5015773;28;20216;-83
2023/09/03 00:06:06;;;;;;;26.88;24.00;;;16.90;99.90;;;;;;5032324;28;20227;-84
2023/09/03 00:08:34;;;;;;;24.90;20.40;;;17.00;99.90;;;;;;5018715;28;20200;-83
2023/09/03 00:11:01;;;;;;;20.65;18.50;;;17.00;99.90;;;;;;5017959;28;20200;-83
2023/09/03 00:13:30;;;;;;;20.52;18.33;;;17.00;99.90;;;;;;5017717;28;20248;-83
2023/09/03 00:15:57;;;;;;;20.17;18.13;;;17.00;99.90;;;;;;5016530;28;20208;-83
2023/09/03 00:18:25;;;;;;;21.73;19.10;;;17.10;99.90;;;;;;5014118;28;20203;-84
2023/09/03 00:20:57;;;;;;;22.83;19.70;;;17.10;99.90;;;;;;5017658;28;20538;-83
2023/09/03 00:23:24;;;;;;;21.77;19.45;;;17.10;99.90;;;;;;5017851;28;20230;-83
2023/09/03 00:25:52;;;;;;;24.38;20.80;;;17.20;99.90;;;;;;5017535;28;20211;-83
2023/09/03 00:28:19;;;;;;;22.65;19.02;;;17.10;99.90;;;;;;5015669;28;20721;-84
2023/09/03 00:31:01;;;;;;;22.58;19.60;;;17.00;99.90;;;;;;5016864;28;20792;-84
2023/09/03 00:33:28;;;;;;;24.65;21.95;;;16.90;99.90;;;;;;5015923;28;20219;-85
2023/09/03 00:35:56;;;;;;;28.67;23.05;;;17.00;99.90;;;;;;5018407;28;20701;-84
2023/09/03 00:38:23;;;;;;;27.85;23.95;;;16.90;99.90;;;;;;5018579;28;20203;-83
2023/09/03 00:40:51;;;;;;;28.70;23.88;;;16.90;99.90;;;;;;5018529;28;20203;-83
2023/09/03 00:43:18;;;;;;;25.65;21.73;;;16.90;99.90;;;;;;5020084;28;20219;-83
2023/09/03 00:45:48;;;;;;;22.58;19.52;;;16.90;99.90;;;;;;5034902;28;20531;-83
2023/09/03 00:48:18;;;;;;;23.27;18.85;;;16.90;99.90;;;;;;5013060;28;20316;-83
2023/09/03 00:50:47;;;;;;;22.77;19.83;;;16.90;99.90;;;;;;5029629;28;20199;-84
2023/09/03 00:53:16;;;;;;;23.90;19.80;;;16.90;99.90;;;;;;5018885;28;20231;-84
2023/09/03 00:55:44;;;;;;;23.70;21.02;;;16.90;99.90;;;;;;5017636;28;20207;-85
2023/09/03 00:58:14;;;;;;;26.05;22.90;;;17.00;99.90;;;;;;5018769;28;20199;-85
2023/09/03 01:00:44;;;;;;;28.10;21.52;;;16.90;99.90;;;;;;5016898;28;20203;-85
2023/09/03 01:03:14;;;;;;;22.10;19.10;;;17.00;99.90;;;;;;5018038;28;20224;-85
2023/09/03 01:05:42;;;;;;;23.17;20.40;;;17.00;99.90;;;;;;5015881;28;20200;-85
2023/09/03 01:08:10;;;;;;;22.58;19.92;;;17.00;99.90;;;;;;5017586;28;20207;-85
2023/09/03 01:10:46;;;;;;;22.83;18.92;;;16.90;99.90;;;;;;5017516;28;20662;-85
2023/09/03 01:13:21;;;;;;;23.20;20.25;;;17.00;99.90;;;;;;5018388;28;20230;-85
2023/09/03 01:15:50;;;;;;;24.60;19.80;;;16.90;99.90;;;;;;5015248;28;20658;-85
2023/09/03 01:18:22;;;;;;;25.17;20.98;;;16.90;99.90;;;;;;5017669;28;20223;-85
2023/09/03 01:21:16;;;;;;;27.95;24.15;;;16.90;99.90;;;;;;5017014;28;20203;-85
2023/09/03 01:23:55;;;;;;;32.15;28.67;;;16.90;99.90;;;;;;5017463;28;20216;-85
2023/09/03 01:26:39;;;;;;;35.05;30.15;;;17.00;99.90;;;;;;5015741;28;20654;-84
2023/09/03 01:29:09;;;;;;;38.28;31.10;;;17.00;99.90;;;;;;5014915;28;20199;-84
2023/09/03 01:31:38;;;;;;;34.65;30.77;;;16.90;99.90;;;;;;5011708;28;20207;-84
2023/09/03 01:34:06;;;;;;;40.60;35.45;;;16.90;99.90;;;;;;5015692;28;20215;-84
2023/09/03 01:36:35;;;;;;;36.33;31.77;;;16.90;99.90;;;;;;5013745;28;20204;-84
2023/09/03 01:39:03;;;;;;;34.85;29.55;;;16.80;99.90;;;;;;5015056;28;20677;-84
2023/09/03 01:41:32;;;;;;;36.22;30.83;;;16.80;99.90;;;;;;5012300;28;20661;-84
2023/09/03 01:44:00;;;;;;;31.80;27.75;;;16.70;99.90;;;;;;5010141;28;20682;-84
2023/09/03 01:46:40;;;;;;;34.85;29.05;;;16.80;99.90;;;;;;5017802;28;20207;-83
2023/09/03 01:49:20;;;;;;;31.17;27.02;;;16.80;99.90;;;;;;5016085;28;20212;-83
2023/09/03 01:51:55;;;;;;;31.42;26.88;;;16.80;99.90;;;;;;5015479;28;20653;-83
2023/09/03 01:54:27;;;;;;;31.63;27.35;;;16.80;99.90;;;;;;5015352;28;20218;-84
2023/09/03 01:57:01;;;;;;;33.08;26.83;;;16.70;99.90;;;;;;5011671;28;20206;-84
2023/09/03 01:59:34;;;;;;;32.30;27.70;;;16.70;99.90;;;;;;5025870;28;20196;-84
2023/09/03 02:02:05;;;;;;;34.00;28.30;;;16.80;99.90;;;;;;5011705;28;20206;-84
2023/09/03 02:04:33;;;;;;;32.20;26.42;;;16.70;99.90;;;;;;5013997;28;20650;-84
2023/09/03 02:07:00;;;;;;;28.63;24.63;;;16.70;99.90;;;;;;5013999;28;20195;-84
2023/09/03 02:09:28;;;;;;;29.80;24.15;;;16.70;99.90;;;;;;5009170;28;20562;-84
2023/09/03 02:11:55;;;;;;;26.75;23.52;;;16.60;99.90;;;;;;5011823;28;20211;-84
2023/09/03 02:14:23;;;;;;;25.52;22.75;;;16.60;99.90;;;;;;5014217;28;20262;-84
2023/09/03 02:16:51;;;;;;;24.00;20.35;;;16.50;99.90;;;;;;5014109;28;20199;-84
2023/09/03 02:19:20;;;;;;;25.77;21.75;;;16.40;99.90;;;;;;5012757;28;20203;-84
2023/09/03 02:21:48;;;;;;;24.25;21.10;;;16.40;99.90;;;;;;5022601;28;20204;-84
2023/09/03 02:24:16;;;;;;;23.88;20.98;;;16.50;99.90;;;;;;5033380;28;20226;-83
2023/09/03 02:26:44;;;;;;;26.10;22.05;;;16.60;99.90;;;;;;5030566;28;20203;-84
2023/09/03 02:29:12;;;;;;;23.70;20.42;;;16.50;99.90;;;;;;5024837;28;20228;-85
2023/09/03 02:31:40;;;;;;;25.75;21.30;;;16.50;99.90;;;;;;5040652;28;20206;-84
2023/09/03 02:34:08;;;;;;;24.25;20.52;;;16.40;99.90;;;;;;5041382;28;20226;-84
2023/09/03 02:36:38;;;;;;;20.88;18.65;;;16.40;99.90;;;;;;5026415;28;20204;-84
2023/09/03 02:39:07;;;;;;;21.20;18.98;;;16.50;99.90;;;;;;5024847;28;20199;-84
2023/09/03 02:41:35;;;;;;;22.23;19.83;;;16.50;99.90;;;;;;5023854;28;20278;-84
2023/09/03 02:44:03;;;;;;;22.95;19.63;;;16.50;99.90;;;;;;5025811;28;20211;-84
2023/09/03 02:46:31;;;;;;;25.90;21.88;;;16.60;99.90;;;;;;5024522;28;20200;-84
2023/09/03 02:48:58;;;;;;;23.38;20.63;;;16.70;99.90;;;;;;5025923;28;20225;-84
2023/09/03 02:51:26;;;;;;;27.05;22.40;;;16.70;99.90;;;;;;5022166;28;20206;-83
2023/09/03 02:53:55;;;;;;;25.90;22.02;;;16.70;99.90;;;;;;5017212;28;20222;-84
2023/09/03 02:56:23;;;;;;;24.60;21.50;;;16.60;99.90;;;;;;5022934;28;20195;-83
2023/09/03 02:58:51;;;;;;;26.80;22.77;;;16.60;99.90;;;;;;5023698;28;20203;-84
2023/09/03 03:01:20;;;;;;;24.10;20.70;;;16.40;99.90;;;;;;5023464;28;20208;-83
2023/09/03 03:03:48;;;;;;;24.92;21.67;;;16.30;99.90;;;;;;5024436;28;20215;-84
2023/09/03 03:06:16;;;;;;;26.17;21.60;;;16.20;99.90;;;;;;5022662;28;20207;-84
2023/09/03 03:08:44;;;;;;;24.38;20.25;;;16.10;99.90;;;;;;5025195;28;20200;-83
2023/09/03 03:11:15;;;;;;;23.30;20.75;;;16.10;99.90;;;;;;5021897;28;20203;-84
2023/09/03 03:13:50;;;;;;;23.67;20.73;;;16.10;99.90;;;;;;5022779;28;20223;-83
2023/09/03 03:16:19;;;;;;;25.38;19.83;;;16.10;99.90;;;;;;5021992;28;20210;-84
2023/09/03 03:18:50;;;;;;;21.58;19.23;;;16.10;99.90;;;;;;5023754;28;20188;-83
2023/09/03 03:21:22;;;;;;;26.77;20.20;;;16.10;99.90;;;;;;5020613;28;20210;-84
2023/09/03 03:23:53;;;;;;;26.27;21.73;;;16.10;99.90;;;;;;5019663;28;20241;-84
2023/09/03 03:26:31;;;;;;;26.90;21.77;;;16.00;99.90;;;;;;5021307;28;20195;-83
2023/09/03 03:28:59;;;;;;;22.58;20.05;;;16.00;99.90;;;;;;5023450;28;20222;-84
2023/09/03 03:31:27;;;;;;;25.17;20.60;;;16.10;99.90;;;;;;5024292;28;20207;-84
2023/09/03 03:33:57;;;;;;;24.05;19.45;;;16.10;99.90;;;;;;5028271;28;20235;-84
2023/09/03 03:36:26;;;;;;;22.80;19.45;;;16.10;99.90;;;;;;5018645;28;20199;-84
2023/09/03 03:38:54;;;;;;;20.38;18.17;;;16.10;99.90;;;;;;5026668;28;20195;-84
2023/09/03 03:41:22;;;;;;;19.60;16.90;;;16.00;99.90;;;;;;5024281;28;20192;-84
2023/09/03 03:43:54;;;;;;;18.75;16.63;;;16.00;99.90;;;;;;5018274;28;20227;-84
2023/09/03 03:46:25;;;;;;;22.30;18.77;;;16.00;99.90;;;;;;5021395;28;20234;-84
2023/09/03 03:48:55;;;;;;;20.90;17.95;;;16.00;99.90;;;;;;5019029;28;20273;-84
2023/09/03 03:51:23;;;;;;;23.90;20.60;;;15.90;99.90;;;;;;5018392;28;20218;-84
2023/09/03 03:53:51;;;;;;;29.70;23.77;;;16.10;99.90;;;;;;5023336;28;20227;-84
2023/09/03 03:56:19;;;;;;;25.88;22.20;;;16.20;99.90;;;;;;5024503;28;20192;-83
2023/09/03 03:58:48;;;;;;;28.42;23.80;;;16.20;99.90;;;;;;5024176;28;20199;-84
2023/09/03 04:01:18;;;;;;;25.98;22.70;;;16.40;99.90;;;;;;5032910;28;20203;-84
2023/09/03 04:03:48;;;;;;;22.75;20.00;;;16.30;99.90;;;;;;5024214;28;20220;-84
2023/09/03 04:06:16;;;;;;;23.50;20.35;;;16.20;99.90;;;;;;5025443;28;20191;-83
2023/09/03 04:08:44;;;;;;;27.88;19.00;;;16.10;99.90;;;;;;5023865;28;20211;-84
2023/09/03 04:11:12;;;;;;;18.48;16.52;;;16.00;99.90;;;;;;5022336;28;20203;-83
2023/09/03 04:13:41;;;;;;;18.88;16.98;;;15.80;99.90;;;;;;5021722;28;20231;-83
2023/09/03 04:16:11;;;;;;;20.08;16.88;;;15.70;99.90;;;;;;5023216;28;20668;-83
2023/09/03 04:18:40;;;;;;;22.17;17.42;;;15.60;99.90;;;;;;5023772;28;20192;-83
2023/09/03 04:21:07;;;;;;;22.60;18.33;;;15.60;99.90;;;;;;5021564;28;20215;-84
2023/09/03 04:23:35;;;;;;;18.52;16.48;;;15.60;99.90;;;;;;5021940;28;20227;-84
2023/09/03 04:26:05;;;;;;;19.58;16.52;;;15.60;99.90;;;;;;5008150;28;20211;-84
2023/09/03 04:28:37;;;;;;;19.02;17.02;;;15.60;99.90;;;;;;5020581;28;20228;-84
2023/09/03 04:31:08;;;;;;;18.65;16.65;;;15.60;99.90;;;;;;5019624;28;20207;-84
2023/09/03 04:33:36;;;;;;;18.88;16.65;;;15.60;99.90;;;;;;5022295;28;20715;-84
2023/09/03 04:36:06;;;;;;;20.33;18.17;;;15.60;99.90;;;;;;5018137;28;20195;-84
2023/09/03 04:38:36;;;;;;;23.50;19.17;;;15.50;99.90;;;;;;5021486;28;20188;-84
2023/09/03 04:41:05;;;;;;;22.20;19.83;;;15.50;99.90;;;;;;5019568;28;20200;-84
2023/09/03 04:43:37;;;;;;;23.75;21.08;;;15.30;99.90;;;;;;5021562;28;20216;-84
2023/09/03 04:46:06;;;;;;;21.73;19.25;;;15.20;99.90;;;;;;5021409;28;20199;-84
2023/09/03 04:48:33;;;;;;;22.23;19.83;;;15.20;99.90;;;;;;5020063;28;20223;-84
2023/09/03 04:51:04;;;;;;;22.02;19.60;;;15.40;99.90;;;;;;5005943;28;20204;-83
2023/09/03 04:53:33;;;;;;;24.38;20.92;;;15.50;99.90;;;;;;5014865;28;20575;-83
2023/09/03 04:56:02;;;;;;;23.10;20.63;;;15.50;99.90;;;;;;5014082;28;20204;-83
2023/09/03 04:58:30;;;;;;;20.65;18.45;;;15.60;99.90;;;;;;5014028;28;20200;-83
2023/09/03 05:00:58;;;;;;;22.77;20.27;;;15.50;99.90;;;;;;5012218;28;20586;-83
2023/09/03 05:03:27;;;;;;;25.77;21.80;;;15.30;99.90;;;;;;5014559;28;20220;-83
2023/09/03 05:05:54;;;;;;;22.13;19.08;;;15.20;99.90;;;;;;5030401;28;20550;-83
2023/09/03 05:08:22;;;;;;;20.48;17.08;;;15.20;99.90;;;;;;5014208;28;20196;-83
2023/09/03 05:10:52;;;;;;;18.15;16.25;;;15.20;99.90;;;;;;5011928;28;20204;-83
2023/09/03 05:13:20;;;;;;;19.63;17.52;;;15.30;99.90;;;;;;5014297;28;20578;-83
2023/09/03 05:15:51;;;;;;;19.85;17.75;;;15.40;99.90;;;;;;5011596;28;20246;-83
2023/09/03 05:18:19;;;;;;;19.35;17.15;;;15.30;99.90;;;;;;5010286;28;20206;-83
2023/09/03 05:20:46;;;;;;;19.33;17.17;;;15.40;99.90;;;;;;5011606;28;20202;-83
2023/09/03 05:23:13;;;;;;;19.33;17.35;;;15.30;99.90;;;;;;5011604;28;20216;-83
2023/09/03 05:25:41;;;;;;;22.42;17.02;;;15.30;99.90;;;;;;5012391;28;20195;-83
2023/09/03 05:28:10;;;;;;;19.33;16.83;;;15.20;99.90;;;;;;5013370;28;20206;-83
2023/09/03 05:30:38;;;;;;;19.98;17.98;;;15.20;99.90;;;;;;5010786;28;20222;-83
2023/09/03 05:33:06;;;;;;;23.85;20.63;;;15.20;99.90;;;;;;5009463;28;20243;-83
2023/09/03 05:35:34;;;;;;;23.52;19.52;;;15.00;99.90;;;;;;5012416;28;20712;-83
2023/09/03 05:38:02;;;;;;;25.08;21.23;;;14.90;99.90;;;;;;5012765;28;20232;-83
2023/09/03 05:40:29;;;;;;;29.42;22.88;;;15.00;99.90;;;;;;5010699;28;20208;-83
2023/09/03 05:42:57;;;;;;;30.08;23.70;;;15.10;99.90;;;;;;5010472;28;20228;-83
2023/09/03 05:45:26;;;;;;;35.10;26.10;;;15.10;99.90;;;;;;5010737;28;20191;-83
2023/09/03 05:47:53;;;;;;;38.83;28.05;;;15.20;99.90;;;;;;5021573;28;20200;-83
2023/09/03 05:50:21;;;;;;;35.72;27.80;;;15.20;99.90;;;;;;5009870;28;20593;-83
2023/09/03 05:52:48;;;;;;;34.67;27.08;;;15.20;99.90;;;;;;5008729;28;20212;-83
2023/09/03 05:55:16;;;;;;;33.28;26.88;;;15.20;99.90;;;;;;5010589;28;20200;-83
2023/09/03 05:57:44;;;;;;;32.20;27.13;;;15.40;99.90;;;;;;5011408;28;20199;-83
2023/09/03 06:00:12;;;;;;;33.28;26.30;;;15.50;99.90;;;;;;5007924;28;20203;-83
2023/09/03 06:02:50;;;;;;;36.33;27.40;;;15.60;99.90;;;;;;5016706;28;20228;-83
2023/09/03 06:05:20;;;;;;;32.08;26.60;;;15.60;99.90;;;;;;5010873;28;20211;-83
2023/09/03 06:07:48;;;;;;;31.48;24.98;;;15.70;99.90;;;;;;5010238;28;20200;-83
2023/09/03 06:10:15;;;;;;;30.77;25.90;;;15.70;99.90;;;;;;5002242;28;20585;-83
2023/09/03 06:12:42;;;;;;;31.02;26.48;;;15.70;99.90;;;;;;5010141;28;20228;-83
2023/09/03 06:15:10;;;;;;;30.90;25.45;;;15.80;99.90;;;;;;5009675;28;20203;-83
2023/09/03 06:17:38;;;;;;;30.73;24.80;;;15.90;99.90;;;;;;5009552;28;20207;-83
2023/09/03 06:20:08;;;;;;;32.85;25.27;;;16.10;99.90;;;;;;5010008;28;20219;-83
2023/09/03 06:22:35;;;;;;;29.92;25.40;;;16.20;99.90;;;;;;5009539;28;20693;-83
2023/09/03 06:25:03;;;;;;;27.25;23.65;;;16.30;99.90;;;;;;5011311;28;20654;-83
2023/09/03 06:27:32;;;;;;;29.48;24.83;;;16.30;99.90;;;;;;5008701;28;20211;-83
2023/09/03 06:29:59;;;;;;;31.65;26.77;;;16.30;99.90;;;;;;5008769;28;20234;-84
2023/09/03 06:32:28;;;;;;;29.40;24.42;;;16.40;99.90;;;;;;5011886;28;20219;-83
2023/09/03 06:34:56;;;;;;;27.70;24.70;;;16.30;99.90;;;;;;5010804;28;20749;-84
2023/09/03 06:37:25;;;;;;;28.80;24.60;;;16.10;99.90;;;;;;5009861;28;20195;-84
2023/09/03 06:39:52;;;;;;;26.63;23.67;;;16.10;99.90;;;;;;5009149;28;20208;-83
2023/09/03 06:42:20;;;;;;;31.27;25.17;;;16.10;99.90;;;;;;5009837;28;20208;-83
2023/09/03 06:44:47;;;;;;;31.08;25.80;;;16.20;99.90;;;;;;4999329;28;20208;-83
2023/09/03 06:47:15;;;;;;;31.10;26.67;;;16.20;99.90;;;;;;5008511;28;20204;-83
2023/09/03 06:49:42;;;;;;;33.35;27.35;;;16.30;99.90;;;;;;5008193;28;20230;-84
2023/09/03 06:52:09;;;;;;;30.02;26.52;;;16.40;99.90;;;;;;5010008;28;20195;-83
2023/09/03 06:54:38;;;;;;;31.73;26.83;;;16.40;99.90;;;;;;5011812;28;20199;-83
2023/09/03 06:57:06;;;;;;;27.92;23.45;;;16.50;99.90;;;;;;5007650;28;20203;-84
2023/09/03 06:59:33;;;;;;;30.70;24.60;;;16.50;99.90;;;;;;5009700;28;20210;-84
2023/09/03 07:02:01;;;;;;;31.23;25.85;;;16.60;99.90;;;;;;5011477;28;20204;-83
2023/09/03 07:04:29;;;;;;;32.75;26.58;;;16.60;99.90;;;;;;5011279;28;20223;-83
2023/09/03 07:06:56;;;;;;;34.70;28.15;;;16.40;99.90;;;;;;5010578;28;20246;-84
2023/09/03 07:09:28;;;;;;;32.85;27.80;;;16.50;99.90;;;;;;5007878;28;20654;-84
2023/09/03 07:11:57;;;;;;;37.78;31.23;;;16.60;99.90;;;;;;5015994;28;20200;-84
2023/09/03 07:14:25;;;;;;;38.92;31.77;;;16.50;99.90;;;;;;5015588;28;20235;-84
2023/09/03 07:16:52;;;;;;;42.70;33.90;;;16.60;99.90;;;;;;5018110;28;20203;-84
2023/09/03 07:19:20;;;;;;;46.25;34.83;;;16.40;99.90;;;;;;5011978;28;20207;-84
2023/09/03 07:21:48;;;;;;;49.25;35.05;;;16.40;99.90;;;;;;5031548;28;20202;-83
2023/09/03 07:24:15;;;;;;;51.83;36.03;;;16.50;99.90;;;;;;5014615;28;20228;-84
2023/09/03 07:26:43;;;;;;;45.15;34.08;;;16.60;99.90;;;;;;5014105;28;20207;-83
2023/09/03 07:29:12;;;;;;;47.65;35.03;;;16.60;99.90;;;;;;5016295;28;20195;-83
2023/09/03 07:31:41;;;;;;;50.45;35.90;;;16.70;99.90;;;;;;5013468;28;20230;-83
2023/09/03 07:34:08;;;;;;;46.13;33.65;;;16.70;99.90;;;;;;5019016;28;20230;-84
2023/09/03 07:36:36;;;;;;;45.35;35.72;;;16.60;99.90;;;;;;5014487;28;20229;-83
2023/09/03 07:39:05;;;;;;;48.53;34.10;;;16.80;99.90;;;;;;5013147;28;20207;-84
2023/09/03 07:41:32;;;;;;;45.17;33.38;;;16.70;99.90;;;;;;5014642;28;20200;-84
2023/09/03 07:44:00;;;;;;;44.25;33.60;;;16.80;99.90;;;;;;5015065;28;20231;-84
2023/09/03 07:46:29;;;;;;;45.90;33.90;;;16.80;99.90;;;;;;5014667;28;20210;-83
2023/09/03 07:48:57;;;;;;;46.97;34.17;;;16.90;99.90;;;;;;5014896;28;20582;-83
2023/09/03 07:51:24;;;;;;;45.08;33.90;;;16.80;99.90;;;;;;5013911;28;20222;-82
2023/09/03 07:53:51;;;;;;;42.22;32.80;;;17.00;99.90;;;;;;5015100;28;20235;-84
2023/09/03 07:56:19;;;;;;;43.75;32.97;;;17.10;99.90;;;;;;5014488;28;20203;-84
2023/09/03 07:58:47;;;;;;;42.75;33.05;;;17.10;99.90;;;;;;5012386;28;20549;-83
2023/09/03 08:01:16;;;;;;;42.15;32.72;;;17.00;99.90;;;;;;5015694;28;20202;-84
2023/09/03 08:03:45;;;;;;;41.83;32.50;;;17.00;99.90;;;;;;5015276;28;20224;-83
2023/09/03 08:06:13;;;;;;;47.22;35.70;;;16.80;99.90;;;;;;5015055;28;20571;-83
2023/09/03 08:08:41;;;;;;;43.58;33.47;;;17.00;99.90;;;;;;5014387;28;20211;-83
2023/09/03 08:11:08;;;;;;;42.13;32.55;;;16.90;99.90;;;;;;5012901;28;20211;-84
2023/09/03 08:13:35;;;;;;;47.10;35.55;;;17.00;99.90;;;;;;5013145;28;20231;-84
2023/09/03 08:16:03;;;;;;;49.25;35.70;;;16.90;99.90;;;;;;5021234;28;20207;-83
2023/09/03 08:18:30;;;;;;;46.65;34.50;;;16.80;99.90;;;;;;5013022;28;20567;-84
2023/09/03 08:20:59;;;;;;;44.55;35.70;;;16.80;99.90;;;;;;5014237;28;20526;-84
2023/09/03 08:23:28;;;;;;;42.05;33.55;;;16.80;99.90;;;;;;5011134;28;20219;-84
2023/09/03 08:25:55;;;;;;;46.10;33.50;;;17.10;99.90;;;;;;5010994;28;20569;-82
2023/09/03 08:28:22;;;;;;;41.65;33.92;;;17.10;99.90;;;;;;5026120;28;20209;-84
2023/09/03 08:30:50;;;;;;;38.67;31.75;;;17.20;99.90;;;;;;5007837;28;20215;-84
2023/09/03 08:33:17;;;;;;;42.33;34.05;;;17.10;99.90;;;;;;5012301;28;20220;-83
2023/09/03 08:35:45;;;;;;;39.42;32.38;;;17.10;99.90;;;;;;5013872;28;20198;-84
2023/09/03 08:38:14;;;;;;;42.05;34.33;;;17.30;99.90;;;;;;5012116;28;20204;-84
2023/09/03 08:40:43;;;;;;;44.90;35.97;;;17.20;99.90;;;;;;5012671;28;20196;-83
2023/09/03 08:43:13;;;;;;;39.40;30.95;;;17.30;99.90;;;;;;5009671;28;20239;-84
2023/09/03 08:45:47;;;;;;;40.33;33.95;;;17.40;99.90;;;;;;5010915;28;20196;-83
2023/09/03 08:48:15;;;;;;;40.83;32.10;;;17.40;99.90;;;;;;5009347;28;20206;-84
2023/09/03 08:50:43;;;;;;;44.97;35.25;;;17.50;99.90;;;;;;5013122;28;20222;-84
2023/09/03 08:53:12;;;;;;;40.10;33.20;;;17.70;99.90;;;;;;5014000;28;20216;-83
2023/09/03 08:55:41;;;;;;;39.22;33.05;;;17.70;99.90;;;;;;5013576;28;20199;-84
2023/09/03 08:58:09;;;;;;;37.75;32.78;;;17.30;99.90;;;;;;5011840;28;20204;-83
2023/09/03 09:00:37;;;;;;;38.72;32.40;;;17.40;99.90;;;;;;5007484;28;20196;-84
2023/09/03 09:03:09;;;;;;;39.67;33.45;;;17.60;99.90;;;;;;5009433;28;20242;-84
2023/09/03 09:05:36;;;;;;;40.53;33.47;;;17.80;99.90;;;;;;5013178;28;20207;-83
2023/09/03 09:08:05;;;;;;;40.53;32.10;;;17.90;99.90;;;;;;5012460;28;20211;-84
2023/09/03 09:10:37;;;;;;;37.58;31.63;;;17.90;99.90;;;;;;5009912;28;20215;-83
2023/09/03 09:13:08;;;;;;;39.00;32.60;;;17.80;99.90;;;;;;5015176;28;20235;-84
2023/09/03 09:15:36;;;;;;;37.65;32.20;;;18.00;99.90;;;;;;5014927;28;20250;-84
2023/09/03 09:18:09;;;;;;;38.95;33.47;;;18.10;99.90;;;;;;5014121;28;20219;-84
2023/09/03 09:20:38;;;;;;;35.40;29.83;;;18.20;99.90;;;;;;5010646;28;20196;-84
2023/09/03 09:23:07;;;;;;;36.58;31.05;;;18.20;99.90;;;;;;5020732;28;20224;-84
2023/09/03 09:25:35;;;;;;;33.65;29.55;;;18.40;99.90;;;;;;5016266;28;20199;-84
2023/09/03 09:28:12;;;;;;;33.38;29.48;;;18.50;99.90;;;;;;5013267;28;20718;-82
2023/09/03 09:30:54;;;;;;;32.85;29.25;;;18.60;99.90;;;;;;5025824;28;20218;-84
2023/09/03 09:33:21;;;;;;;33.63;28.95;;;18.40;99.90;;;;;;5016366;28;20579;-84
2023/09/03 09:35:49;;;;;;;32.42;28.92;;;18.70;99.90;;;;;;5016278;28;20195;-83
2023/09/03 09:38:18;;;;;;;31.38;27.98;;;18.90;99.90;;;;;;5016853;28;20199;-83
2023/09/03 09:40:45;;;;;;;31.35;27.98;;;18.80;99.90;;;;;;5030722;28;20200;-83
2023/09/03 09:43:14;;;;;;;31.02;26.85;;;18.70;99.90;;;;;;5018585;28;20211;-84
2023/09/03 09:45:49;;;;;;;30.48;27.20;;;18.60;99.90;;;;;;5015420;28;20206;-83
2023/09/03 09:48:17;;;;;;;32.10;28.05;;;18.70;99.90;;;;;;5016812;28;20199;-83
2023/09/03 09:50:47;;;;;;;31.92;28.52;;;18.70;99.90;;;;;;5001335;28;20218;-83
2023/09/03 09:53:23;;;;;;;32.58;29.08;;;18.70;99.90;;;;;;5016050;28;20224;-83
2023/09/03 09:55:59;;;;;;;31.30;27.83;;;18.80;99.90;;;;;;5016036;28;20203;-84
2023/09/03 09:58:37;;;;;;;30.58;27.27;;;19.10;99.90;;;;;;5016010;28;20578;-83
2023/09/03 10:01:04;;;;;;;30.25;26.77;;;19.50;99.90;;;;;;5014858;28;20199;-84
2023/09/03 10:03:42;;;;;;;30.92;27.35;;;19.60;99.90;;;;;;5015214;28;20298;-84
2023/09/03 10:06:10;;;;;;;29.98;26.80;;;19.70;99.90;;;;;;5017601;28;20202;-83
2023/09/03 10:08:38;;;;;;;26.38;23.33;;;19.80;99.90;;;;;;4998442;28;20590;-84
2023/09/03 10:11:06;;;;;;;27.80;24.77;;;19.90;99.90;;;;;;5013897;28;20223;-83
2023/09/03 10:13:33;;;;;;;27.40;24.60;;;20.00;99.90;;;;;;5013393;28;20231;-84
2023/09/03 10:16:03;;;;;;;26.00;23.30;;;19.90;99.90;;;;;;5014066;28;20200;-84
2023/09/03 10:18:33;;;;;;;24.00;21.50;;;20.30;99.90;;;;;;5011163;28;20211;-84
2023/09/03 10:21:04;;;;;;;22.30;20.08;;;20.50;99.90;;;;;;5027480;28;20207;-83
2023/09/03 10:23:36;;;;;;;23.20;20.83;;;20.50;99.90;;;;;;5006015;28;20219;-84
2023/09/03 10:26:05;;;;;;;22.00;19.70;;;20.60;99.90;;;;;;5012340;28;20210;-84
2023/09/03 10:28:37;;;;;;;18.92;17.08;;;20.50;99.90;;;;;;5007193;28;20203;-82
2023/09/03 10:31:07;;;;;;;16.70;15.02;;;20.70;1.00;;;;;;5010446;28;20212;-83
2023/09/03 10:33:35;;;;;;;17.15;15.43;;;20.90;99.90;;;;;;5013721;28;20228;-84
2023/09/03 10:36:13;;;;;;;19.65;17.30;;;21.00;1.00;;;;;;4997074;28;20200;-84
2023/09/03 10:38:41;;;;;;;16.13;14.50;;;20.90;1.00;;;;;;4998748;28;20195;-85
2023/09/03 10:41:19;;;;;;;15.65;14.05;;;20.90;1.00;;;;;;5009960;28;20199;-84
2023/09/03 10:43:47;;;;;;;10.52;9.23;;;21.10;1.00;;;;;;5007297;28;20689;-84
2023/09/03 10:46:16;;;;;;;10.85;9.75;;;21.20;1.00;;;;;;5013699;28;20206;-84
2023/09/03 10:48:54;;;;;;;10.00;8.65;;;21.30;1.00;;;;;;5013712;28;20191;-84
2023/09/03 10:51:32;;;;;;;10.30;9.32;;;21.40;1.00;;;;;;5012074;28;20661;-84
2023/09/03 10:54:16;;;;;;;9.43;8.10;;;21.40;1.00;;;;;;5013693;28;20223;-84
2023/09/03 10:57:17;;;;;;;9.63;8.65;;;21.50;99.90;;;;;;5029008;28;20196;-84
2023/09/03 11:00:07;;;;;;;12.65;11.35;;;21.80;1.00;;;;;;5012234;28;20203;-84
2023/09/03 11:02:37;;;;;;;12.13;10.75;;;22.00;1.00;;;;;;5006107;28;20215;-84
2023/09/03 11:05:15;;;;;;;13.73;12.32;;;22.20;99.90;;;;;;5014277;28;20199;-84
2023/09/03 11:07:44;;;;;;;13.60;11.20;;;21.90;1.00;;;;;;5015389;28;20204;-84
2023/09/03 11:10:48;;;;;;;12.15;9.95;;;21.80;99.90;;;;;;5012805;28;20532;-82
2023/09/03 11:13:15;;;;;;;11.32;9.98;;;22.00;1.00;;;;;;4993607;28;20233;-83
2023/09/03 11:15:55;;;;;;;12.00;10.38;;;22.20;1.00;;;;;;5012891;28;20203;-84
2023/09/03 11:18:26;;;;;;;10.52;9.40;;;22.30;99.90;;;;;;5029502;28;20195;-83
2023/09/03 11:20:55;;;;;;;11.75;9.95;;;22.40;99.90;;;;;;5012779;28;20401;-84
2023/09/03 11:27:05;;;;;;;8.80;8.00;;;22.00;99.90;;;;;;5009573;28;20199;-83
2023/09/03 11:29:32;;;;;;;10.18;7.82;;;22.30;1.00;;;;;;5010288;28;20192;-83
2023/09/03 11:32:00;;;;;;;7.93;6.70;;;22.50;1.00;;;;;;5009404;28;20239;-84
2023/09/03 11:34:29;;;;;;;9.07;6.22;;;22.70;1.00;;;;;;5009983;28;20215;-84
2023/09/03 11:37:00;;;;;;;6.78;6.05;;;22.90;99.90;;;;;;5010839;28;20214;-83
2023/09/03 11:39:27;;;;;;;6.97;5.70;;;23.20;99.90;;;;;;5009079;28;20196;-83
2023/09/03 11:41:55;;;;;;;5.85;5.18;;;23.30;99.90;;;;;;5009348;28;20204;-83
2023/09/03 11:44:24;;;;;;;8.40;5.72;;;23.40;99.90;;;;;;5007734;28;20223;-84
2023/09/03 11:46:58;;;;;;;5.60;5.10;;;23.20;99.90;;;;;;5010731;28;20208;-84
2023/09/03 11:49:26;;;;;;;6.47;5.55;;;23.40;40.90;;;;;;5009659;28;20202;-83
2023/09/03 11:51:55;;;;;;;7.50;5.00;;;23.50;1.00;;;;;;5013494;28;20689;-84
2023/09/03 11:54:23;;;;;;;7.18;6.20;;;24.00;1.00;;;;;;5012967;28;20216;-84
2023/09/03 11:56:51;;;;;;;7.55;6.75;;;24.10;1.00;;;;;;5011755;28;20202;-84
2023/09/03 11:59:20;;;;;;;10.25;8.38;;;23.90;1.00;;;;;;5012461;28;20210;-84
2023/09/03 12:01:47;;;;;;;10.40;9.20;;;24.10;1.00;;;;;;5013156;28;20211;-83
2023/09/03 12:04:15;;;;;;;10.88;8.95;;;24.30;29.80;;;;;;5012935;28;20219;-85
2023/09/03 12:06:42;;;;;;;10.18;9.07;;;24.20;1.00;;;;;;5014079;28;20204;-84
2023/09/03 12:09:11;;;;;;;10.25;8.77;;;24.00;78.50;;;;;;5023287;28;20212;-84
2023/09/03 12:11:39;;;;;;;8.48;6.97;;;24.10;1.00;;;;;;5013260;28;20199;-84
2023/09/03 12:14:09;;;;;;;10.27;7.32;;;23.30;1.00;;;;;;5015532;28;20239;-84
2023/09/03 12:16:46;;;;;;;7.38;6.53;;;23.50;1.00;;;;;;5014746;28;20214;-84
2023/09/03 12:19:13;;;;;;;6.95;4.88;;;23.80;1.00;;;;;;5013962;28;20215;-84
2023/09/03 12:21:41;;;;;;;7.25;5.25;;;23.80;1.00;;;;;;5013776;28;20203;-84
2023/09/03 12:24:10;;;;;;;6.00;5.22;;;23.70;1.00;;;;;;5013220;28;20219;-84
2023/09/03 12:26:38;;;;;;;8.43;5.82;;;24.10;1.00;;;;;;5013217;28;20566;-84
2023/09/03 12:29:18;;;;;;;9.23;7.03;;;24.00;1.00;;;;;;5013027;28;20206;-84
2023/09/03 12:31:46;;;;;;;7.20;6.47;;;24.30;1.00;;;;;;5011958;28;20203;-84
2023/09/03 12:34:32;;;;;;;6.72;5.70;;;24.10;1.00;;;;;;5018219;28;20682;-83
2023/09/03 12:37:00;;;;;;;6.35;4.93;;;24.20;1.00;;;;;;5013280;28;20214;-84
2023/09/03 12:39:33;;;;;;;6.43;5.53;;;24.10;1.00;;;;;;5012862;28;20195;-84
2023/09/03 12:42:01;;;;;;;6.90;6.20;;;24.30;1.00;;;;;;5030080;28;20200;-84
2023/09/03 12:44:29;;;;;;;7.00;6.20;;;24.50;1.00;;;;;;5012006;28;20236;-84
2023/09/03 12:46:57;;;;;;;8.07;6.53;;;24.50;1.00;;;;;;5013324;28;20196;-84